sensor_id;sensor_type;location;lat;lon;timestamp;pressure;altitude;pressure_sealevel;temperature;humidity
10464;BME280;5279;42.048;24.638;2023-01-29T00:01:27;97611.72;;;3.27;93.36
10464;BME280;5279;42.048;24.638;2023-01-29T00:03:56;97606.06;;;3.34;91.22
10464;BME280;5279;42.048;24.638;2023-01-29T00:06:22;97609.81;;;3.29;90.71
10464;BME280;5279;42.048;24.638;2023-01-29T00:08:49;97612.25;;;3.33;92.25
10464;BME280;5279;42.048;24.638;2023-01-29T00:11:17;97612.75;;;3.25;94.20
10464;BME280;5279;42.048;24.638;2023-01-29T00:13:44;97621.09;;;3.17;93.80
10464;BME280;5279;42.048;24.638;2023-01-29T00:16:11;97620.38;;;3.15;94.24
10464;BME280;5279;42.048;24.638;2023-01-29T00:18:40;97622.41;;;3.10;96.99
10464;BME280;5279;42.048;24.638;2023-01-29T00:21:12;97622.97;;;3.15;92.83
10464;BME280;5279;42.048;24.638;2023-01-29T00:23:39;97635.50;;;3.10;93.31
10464;BME280;5279;42.048;24.638;2023-01-29T00:26:07;97627.31;;;3.02;94.48
10464;BME280;5279;42.048;24.638;2023-01-29T00:28:34;97631.81;;;3.00;95.91
10464;BME280;5279;42.048;24.638;2023-01-29T00:31:06;97629.41;;;2.97;98.84
10464;BME280;5279;42.048;24.638;2023-01-29T00:33:33;97627.91;;;2.93;97.47
10464;BME280;5279;42.048;24.638;2023-01-29T00:36:02;97630.16;;;2.85;97.06
10464;BME280;5279;42.048;24.638;2023-01-29T00:38:31;97629.84;;;2.90;96.83
10464;BME280;5279;42.048;24.638;2023-01-29T00:41:04;97627.91;;;2.93;95.17
10464;BME280;5279;42.048;24.638;2023-01-29T00:43:49;97638.94;;;2.84;97.56
10464;BME280;5279;42.048;24.638;2023-01-29T00:46:34;97635.41;;;2.85;98.93
10464;BME280;5279;42.048;24.638;2023-01-29T00:49:00;97638.22;;;2.82;97.74
10464;BME280;5279;42.048;24.638;2023-01-29T00:51:27;97635.41;;;2.85;97.68
10464;BME280;5279;42.048;24.638;2023-01-29T00:53:56;97627.75;;;2.82;98.65
10464;BME280;5279;42.048;24.638;2023-01-29T00:56:23;97626.78;;;2.83;100.00
10464;BME280;5279;42.048;24.638;2023-01-29T00:58:50;97616.72;;;2.77;99.98
10464;BME280;5279;42.048;24.638;2023-01-29T01:01:17;97625.31;;;2.79;100.00
10464;BME280;5279;42.048;24.638;2023-01-29T01:04:04;97635.78;;;2.79;100.00
10464;BME280;5279;42.048;24.638;2023-01-29T01:06:30;97626.31;;;2.91;99.02
10464;BME280;5279;42.048;24.638;2023-01-29T01:08:58;97620.97;;;2.92;99.94
10464;BME280;5279;42.048;24.638;2023-01-29T01:11:42;97633.13;;;2.93;98.69
10464;BME280;5279;42.048;24.638;2023-01-29T01:14:09;97636.88;;;2.89;100.00
10464;BME280;5279;42.048;24.638;2023-01-29T01:16:36;97632.13;;;2.82;100.00
10464;BME280;5279;42.048;24.638;2023-01-29T01:19:03;97626.69;;;2.85;100.00
10464;BME280;5279;42.048;24.638;2023-01-29T01:21:31;97634.34;;;2.88;100.00
10464;BME280;5279;42.048;24.638;2023-01-29T01:23:59;97631.44;;;2.92;100.00
10464;BME280;5279;42.048;24.638;2023-01-29T01:26:26;97640.25;;;2.91;100.00
10464;BME280;5279;42.048;24.638;2023-01-29T01:28:53;97635.28;;;2.87;100.00
10464;BME280;5279;42.048;24.638;2023-01-29T01:31:20;97640.63;;;2.85;100.00
10464;BME280;5279;42.048;24.638;2023-01-29T01:33:47;97636.66;;;2.92;100.00
10464;BME280;5279;42.048;24.638;2023-01-29T01:36:16;97638.56;;;2.90;100.00
10464;BME280;5279;42.048;24.638;2023-01-29T01:38:43;97636.34;;;2.70;100.00
10464;BME280;5279;42.048;24.638;2023-01-29T01:41:12;97631.78;;;2.59;100.00
10464;BME280;5279;42.048;24.638;2023-01-29T01:43:50;97637.84;;;2.60;100.00
10464;BME280;5279;42.048;24.638;2023-01-29T01:46:17;97639.63;;;2.59;100.00
10464;BME280;5279;42.048;24.638;2023-01-29T01:48:48;97628.63;;;2.54;100.00
10464;BME280;5279;42.048;24.638;2023-01-29T01:51:17;97634.13;;;2.50;100.00
10464;BME280;5279;42.048;24.638;2023-01-29T01:53:52;97629.84;;;2.49;100.00
10464;BME280;5279;42.048;24.638;2023-01-29T01:56:24;97630.94;;;2.45;100.00
10464;BME280;5279;42.048;24.638;2023-01-29T01:58:54;97632.28;;;2.52;100.00
10464;BME280;5279;42.048;24.638;2023-01-29T02:01:22;97622.81;;;2.49;100.00
10464;BME280;5279;42.048;24.638;2023-01-29T02:03:55;97632.16;;;2.53;100.00
10464;BME280;5279;42.048;24.638;2023-01-29T02:06:42;97624.03;;;2.44;100.00
10464;BME280;5279;42.048;24.638;2023-01-29T02:09:30;97636.84;;;2.48;100.00
10464;BME280;5279;42.048;24.638;2023-01-29T02:12:02;97628.03;;;2.49;100.00
10464;BME280;5279;42.048;24.638;2023-01-29T02:14:29;97626.28;;;2.36;100.00
10464;BME280;5279;42.048;24.638;2023-01-29T02:16:59;97628.16;;;2.34;100.00
10464;BME280;5279;42.048;24.638;2023-01-29T02:19:35;97629.63;;;2.38;100.00
10464;BME280;5279;42.048;24.638;2023-01-29T02:22:17;97630.94;;;2.45;100.00
10464;BME280;5279;42.048;24.638;2023-01-29T02:25:01;97631.97;;;2.42;100.00
10464;BME280;5279;42.048;24.638;2023-01-29T02:27:54;97626.84;;;2.41;100.00
10464;BME280;5279;42.048;24.638;2023-01-29T02:30:25;97643.84;;;2.34;100.00
10464;BME280;5279;42.048;24.638;2023-01-29T02:32:59;97636.75;;;2.36;100.00
10464;BME280;5279;42.048;24.638;2023-01-29T02:35:34;97641.97;;;2.36;100.00
10464;BME280;5279;42.048;24.638;2023-01-29T02:38:11;97645.69;;;2.32;100.00
10464;BME280;5279;42.048;24.638;2023-01-29T02:40:44;97652.06;;;2.42;100.00
10464;BME280;5279;42.048;24.638;2023-01-29T02:43:25;97642.44;;;2.42;100.00
10464;BME280;5279;42.048;24.638;2023-01-29T02:46:00;97646.81;;;2.42;100.00
10464;BME280;5279;42.048;24.638;2023-01-29T02:48:39;97648.13;;;2.35;100.00
10464;BME280;5279;42.048;24.638;2023-01-29T02:51:10;97647.38;;;2.33;100.00
10464;BME280;5279;42.048;24.638;2023-01-29T02:53:45;97648.72;;;2.40;100.00
10464;BME280;5279;42.048;24.638;2023-01-29T02:56:17;97651.09;;;2.29;100.00
10464;BME280;5279;42.048;24.638;2023-01-29T02:58:51;97660.72;;;2.28;100.00
10464;BME280;5279;42.048;24.638;2023-01-29T03:01:22;97660.28;;;2.22;100.00
10464;BME280;5279;42.048;24.638;2023-01-29T03:03:59;97652.97;;;2.27;100.00
10464;BME280;5279;42.048;24.638;2023-01-29T03:06:31;97667.53;;;2.16;100.00
10464;BME280;5279;42.048;24.638;2023-01-29T03:09:03;97669.59;;;2.11;100.00
10464;BME280;5279;42.048;24.638;2023-01-29T03:11:34;97668.63;;;1.98;100.00
10464;BME280;5279;42.048;24.638;2023-01-29T03:14:06;97660.94;;;1.81;100.00
10464;BME280;5279;42.048;24.638;2023-01-29T03:16:39;97663.00;;;1.76;100.00
10464;BME280;5279;42.048;24.638;2023-01-29T03:19:11;97666.00;;;1.84;100.00
10464;BME280;5279;42.048;24.638;2023-01-29T03:21:43;97668.22;;;1.76;100.00
10464;BME280;5279;42.048;24.638;2023-01-29T03:24:21;97671.38;;;1.81;100.00
10464;BME280;5279;42.048;24.638;2023-01-29T03:27:10;97674.06;;;1.80;100.00
10464;BME280;5279;42.048;24.638;2023-01-29T03:29:58;97680.81;;;1.84;100.00
10464;BME280;5279;42.048;24.638;2023-01-29T03:32:45;97682.50;;;1.85;100.00
10464;BME280;5279;42.048;24.638;2023-01-29T03:35:17;97688.16;;;1.77;100.00
10464;BME280;5279;42.048;24.638;2023-01-29T03:38:01;97684.34;;;1.83;100.00
10464;BME280;5279;42.048;24.638;2023-01-29T03:40:35;97683.53;;;1.82;100.00
10464;BME280;5279;42.048;24.638;2023-01-29T03:43:08;97681.84;;;1.81;100.00
10464;BME280;5279;42.048;24.638;2023-01-29T03:45:48;97688.22;;;1.91;100.00
10464;BME280;5279;42.048;24.638;2023-01-29T03:48:22;97687.44;;;1.89;100.00
10464;BME280;5279;42.048;24.638;2023-01-29T03:51:00;97689.13;;;1.90;100.00
10464;BME280;5279;42.048;24.638;2023-01-29T03:53:35;97689.19;;;1.75;100.00
10464;BME280;5279;42.048;24.638;2023-01-29T03:56:17;97691.91;;;1.73;100.00
10464;BME280;5279;42.048;24.638;2023-01-29T03:58:50;97687.13;;;1.80;100.00
10464;BME280;5279;42.048;24.638;2023-01-29T04:01:24;97687.06;;;1.81;100.00
10464;BME280;5279;42.048;24.638;2023-01-29T04:03:58;97685.19;;;1.83;100.00
10464;BME280;5279;42.048;24.638;2023-01-29T04:06:30;97688.59;;;1.85;100.00
10464;BME280;5279;42.048;24.638;2023-01-29T04:09:02;97705.91;;;1.86;100.00
10464;BME280;5279;42.048;24.638;2023-01-29T04:11:30;97700.69;;;1.86;100.00
10464;BME280;5279;42.048;24.638;2023-01-29T04:13:58;97693.28;;;1.94;100.00
10464;BME280;5279;42.048;24.638;2023-01-29T04:16:30;97705.56;;;1.92;100.00
10464;BME280;5279;42.048;24.638;2023-01-29T04:18:59;97710.44;;;1.98;100.00
10464;BME280;5279;42.048;24.638;2023-01-29T04:21:26;97716.59;;;1.97;100.00
10464;BME280;5279;42.048;24.638;2023-01-29T04:23:53;97713.81;;;2.00;100.00
10464;BME280;5279;42.048;24.638;2023-01-29T04:26:31;97713.22;;;1.95;100.00
10464;BME280;5279;42.048;24.638;2023-01-29T04:29:20;97717.16;;;2.02;100.00
10464;BME280;5279;42.048;24.638;2023-01-29T04:31:59;97714.00;;;1.97;100.00
10464;BME280;5279;42.048;24.638;2023-01-29T04:34:34;97721.06;;;1.95;100.00
10464;BME280;5279;42.048;24.638;2023-01-29T04:37:12;97720.88;;;1.98;100.00
10464;BME280;5279;42.048;24.638;2023-01-29T04:39:48;97710.97;;;1.89;100.00
10464;BME280;5279;42.048;24.638;2023-01-29T04:42:27;97726.88;;;2.00;100.00
10464;BME280;5279;42.048;24.638;2023-01-29T04:44:59;97720.88;;;1.98;100.00
10464;BME280;5279;42.048;24.638;2023-01-29T04:47:33;97724.72;;;2.07;100.00
10464;BME280;5279;42.048;24.638;2023-01-29T04:50:07;97726.28;;;1.95;100.00
10464;BME280;5279;42.048;24.638;2023-01-29T04:52:45;97724.25;;;2.00;100.00
10464;BME280;5279;42.048;24.638;2023-01-29T04:55:20;97725.50;;;2.09;100.00
10464;BME280;5279;42.048;24.638;2023-01-29T04:57:54;97726.41;;;2.08;100.00
10464;BME280;5279;42.048;24.638;2023-01-29T05:00:28;97729.31;;;2.03;100.00
10464;BME280;5279;42.048;24.638;2023-01-29T05:03:07;97727.81;;;1.99;100.00
10464;BME280;5279;42.048;24.638;2023-01-29T05:05:37;97736.31;;;2.03;100.00
10464;BME280;5279;42.048;24.638;2023-01-29T05:08:06;97736.38;;;2.01;100.00
10464;BME280;5279;42.048;24.638;2023-01-29T05:10:34;97742.56;;;2.00;100.00
10464;BME280;5279;42.048;24.638;2023-01-29T05:13:03;97736.31;;;2.03;100.00
10464;BME280;5279;42.048;24.638;2023-01-29T05:15:36;97739.59;;;2.06;100.00
10464;BME280;5279;42.048;24.638;2023-01-29T05:18:04;97749.59;;;1.84;100.00
10464;BME280;5279;42.048;24.638;2023-01-29T05:20:36;97750.44;;;1.85;100.00
10464;BME280;5279;42.048;24.638;2023-01-29T05:23:04;97757.81;;;1.92;100.00
10464;BME280;5279;42.048;24.638;2023-01-29T05:25:34;97745.88;;;1.88;100.00
10464;BME280;5279;42.048;24.638;2023-01-29T05:28:01;97759.34;;;1.96;100.00
10464;BME280;5279;42.048;24.638;2023-01-29T05:30:31;97754.28;;;1.93;100.00
10464;BME280;5279;42.048;24.638;2023-01-29T05:32:59;97752.50;;;1.94;100.00
10464;BME280;5279;42.048;24.638;2023-01-29T05:35:26;97765.13;;;2.01;100.00
10464;BME280;5279;42.048;24.638;2023-01-29T05:37:55;97757.81;;;1.92;100.00
10464;BME280;5279;42.048;24.638;2023-01-29T05:40:22;97763.63;;;1.97;100.00
10464;BME280;5279;42.048;24.638;2023-01-29T05:42:49;97755.44;;;2.03;100.00
10464;BME280;5279;42.048;24.638;2023-01-29T05:45:16;97759.81;;;2.03;100.00
10464;BME280;5279;42.048;24.638;2023-01-29T05:47:45;97754.41;;;2.06;100.00
10464;BME280;5279;42.048;24.638;2023-01-29T05:50:13;97766.00;;;2.16;100.00
10464;BME280;5279;42.048;24.638;2023-01-29T05:52:40;97766.09;;;2.14;100.00
10464;BME280;5279;42.048;24.638;2023-01-29T05:55:09;97782.16;;;2.08;100.00
10464;BME280;5279;42.048;24.638;2023-01-29T05:57:37;97781.22;;;2.09;100.00
10464;BME280;5279;42.048;24.638;2023-01-29T06:00:05;97788.59;;;2.17;100.00
10464;BME280;5279;42.048;24.638;2023-01-29T06:02:33;97785.47;;;2.26;100.00
10464;BME280;5279;42.048;24.638;2023-01-29T06:05:00;97786.50;;;2.24;100.00
10464;BME280;5279;42.048;24.638;2023-01-29T06:07:26;97798.88;;;2.20;100.00
10464;BME280;5279;42.048;24.638;2023-01-29T06:09:53;97794.88;;;2.14;100.00
10464;BME280;5279;42.048;24.638;2023-01-29T06:12:21;97793.31;;;2.26;100.00
10464;BME280;5279;42.048;24.638;2023-01-29T06:14:48;97794.88;;;2.14;100.00
10464;BME280;5279;42.048;24.638;2023-01-29T06:17:16;97786.44;;;2.09;100.00
10464;BME280;5279;42.048;24.638;2023-01-29T06:19:42;97810.97;;;2.07;100.00
10464;BME280;5279;42.048;24.638;2023-01-29T06:22:09;97817.63;;;2.12;100.00
10464;BME280;5279;42.048;24.638;2023-01-29T06:24:36;97814.00;;;2.15;100.00
10464;BME280;5279;42.048;24.638;2023-01-29T06:27:03;97815.41;;;2.20;100.00
10464;BME280;5279;42.048;24.638;2023-01-29T06:29:31;97805.50;;;2.11;100.00
10464;BME280;5279;42.048;24.638;2023-01-29T06:31:58;97824.53;;;2.13;100.00
10464;BME280;5279;42.048;24.638;2023-01-29T06:34:25;97826.75;;;2.05;100.00
10464;BME280;5279;42.048;24.638;2023-01-29T06:36:52;97831.56;;;1.97;100.00
10464;BME280;5279;42.048;24.638;2023-01-29T06:39:19;97828.44;;;2.06;100.00
10464;BME280;5279;42.048;24.638;2023-01-29T06:41:46;97833.31;;;2.12;100.00
10464;BME280;5279;42.048;24.638;2023-01-29T06:44:13;97830.88;;;2.09;100.00
10464;BME280;5279;42.048;24.638;2023-01-29T06:46:41;97837.53;;;2.15;100.00
10464;BME280;5279;42.048;24.638;2023-01-29T06:49:08;97836.50;;;2.17;100.00
10464;BME280;5279;42.048;24.638;2023-01-29T06:51:35;97844.03;;;2.38;100.00
10464;BME280;5279;42.048;24.638;2023-01-29T06:54:02;97838.25;;;2.33;100.00
10464;BME280;5279;42.048;24.638;2023-01-29T06:56:30;97850.28;;;2.35;100.00
10464;BME280;5279;42.048;24.638;2023-01-29T06:58:57;97844.81;;;2.40;100.00
10464;BME280;5279;42.048;24.638;2023-01-29T07:01:29;97852.66;;;2.40;100.00
10464;BME280;5279;42.048;24.638;2023-01-29T07:03:58;97850.03;;;2.40;100.00
10464;BME280;5279;42.048;24.638;2023-01-29T07:06:26;97850.97;;;2.39;100.00
10464;BME280;5279;42.048;24.638;2023-01-29T07:08:54;97858.97;;;2.36;100.00
10464;BME280;5279;42.048;24.638;2023-01-29T07:11:21;97858.75;;;2.25;100.00
10464;BME280;5279;42.048;24.638;2023-01-29T07:13:48;97854.69;;;2.19;100.00
10464;BME280;5279;42.048;24.638;2023-01-29T07:16:15;97858.59;;;2.28;100.00
10464;BME280;5279;42.048;24.638;2023-01-29T07:18:42;97856.53;;;2.33;100.00
10464;BME280;5279;42.048;24.638;2023-01-29T07:21:10;97853.72;;;2.22;100.00
10464;BME280;5279;42.048;24.638;2023-01-29T07:23:37;97858.00;;;2.22;100.00
10464;BME280;5279;42.048;24.638;2023-01-29T07:26:05;97864.50;;;2.15;100.00
10464;BME280;5279;42.048;24.638;2023-01-29T07:28:35;97866.53;;;2.10;100.00
10464;BME280;5279;42.048;24.638;2023-01-29T07:31:02;97872.66;;;2.25;100.00
10464;BME280;5279;42.048;24.638;2023-01-29T07:33:33;97871.22;;;2.19;100.00
10464;BME280;5279;42.048;24.638;2023-01-29T07:36:00;97869.41;;;2.22;100.00
10464;BME280;5279;42.048;24.638;2023-01-29T07:38:28;97867.19;;;2.30;100.00
10464;BME280;5279;42.048;24.638;2023-01-29T07:40:55;97873.75;;;2.37;100.00
10464;BME280;5279;42.048;24.638;2023-01-29T07:43:22;97865.81;;;2.38;100.00
10464;BME280;5279;42.048;24.638;2023-01-29T07:45:50;97879.09;;;2.49;100.00
10464;BME280;5279;42.048;24.638;2023-01-29T07:48:17;97861.75;;;2.48;100.00
10464;BME280;5279;42.048;24.638;2023-01-29T07:50:44;97870.44;;;2.49;100.00
10464;BME280;5279;42.048;24.638;2023-01-29T07:53:12;97864.25;;;2.50;100.00
10464;BME280;5279;42.048;24.638;2023-01-29T07:55:42;97871.59;;;2.43;100.00
10464;BME280;5279;42.048;24.638;2023-01-29T07:58:09;97879.41;;;2.59;100.00
10464;BME280;5279;42.048;24.638;2023-01-29T08:00:36;97875.13;;;2.58;100.00
10464;BME280;5279;42.048;24.638;2023-01-29T08:03:04;97876.63;;;2.62;100.00
10464;BME280;5279;42.048;24.638;2023-01-29T08:05:32;97880.75;;;2.66;100.00
10464;BME280;5279;42.048;24.638;2023-01-29T08:07:59;97877.41;;;2.64;100.00
10464;BME280;5279;42.048;24.638;2023-01-29T08:10:26;97881.47;;;2.54;100.00
10464;BME280;5279;42.048;24.638;2023-01-29T08:12:55;97879.91;;;2.65;100.00
10464;BME280;5279;42.048;24.638;2023-01-29T08:15:22;97885.81;;;2.69;100.00
10464;BME280;5279;42.048;24.638;2023-01-29T08:17:49;97898.81;;;2.70;100.00
10464;BME280;5279;42.048;24.638;2023-01-29T08:20:17;97896.44;;;2.66;100.00
10464;BME280;5279;42.048;24.638;2023-01-29T08:22:44;97893.34;;;2.59;100.00
10464;BME280;5279;42.048;24.638;2023-01-29T08:25:13;97893.75;;;2.67;100.00
10464;BME280;5279;42.048;24.638;2023-01-29T08:27:41;97894.69;;;2.66;100.00
10464;BME280;5279;42.048;24.638;2023-01-29T08:30:10;97892.56;;;2.73;100.00
10464;BME280;5279;42.048;24.638;2023-01-29T08:32:37;97900.41;;;2.73;100.00
10464;BME280;5279;42.048;24.638;2023-01-29T08:35:05;97901.53;;;2.83;100.00
10464;BME280;5279;42.048;24.638;2023-01-29T08:37:31;97903.97;;;2.86;100.00
10464;BME280;5279;42.048;24.638;2023-01-29T08:39:58;97911.63;;;2.75;100.00
10464;BME280;5279;42.048;24.638;2023-01-29T08:42:25;97911.97;;;2.69;100.00
10464;BME280;5279;42.048;24.638;2023-01-29T08:44:52;97908.59;;;2.67;100.00
10464;BME280;5279;42.048;24.638;2023-01-29T08:47:20;97925.25;;;2.80;100.00
10464;BME280;5279;42.048;24.638;2023-01-29T08:49:47;97916.31;;;2.84;100.00
10464;BME280;5279;42.048;24.638;2023-01-29T08:52:14;97924.13;;;2.70;100.00
10464;BME280;5279;42.048;24.638;2023-01-29T08:54:41;97927.50;;;2.86;100.00
10464;BME280;5279;42.048;24.638;2023-01-29T08:57:07;97923.41;;;2.82;100.00
10464;BME280;5279;42.048;24.638;2023-01-29T08:59:34;97923.06;;;2.88;100.00
10464;BME280;5279;42.048;24.638;2023-01-29T09:02:02;97918.94;;;2.98;100.00
10464;BME280;5279;42.048;24.638;2023-01-29T09:04:30;97914.50;;;3.00;100.00
10464;BME280;5279;42.048;24.638;2023-01-29T09:06:57;97919.44;;;3.05;100.00
10464;BME280;5279;42.048;24.638;2023-01-29T09:09:24;97913.00;;;3.10;100.00
10464;BME280;5279;42.048;24.638;2023-01-29T09:11:51;97908.28;;;3.01;100.00
10464;BME280;5279;42.048;24.638;2023-01-29T09:14:18;97898.59;;;3.03;100.00
10464;BME280;5279;42.048;24.638;2023-01-29T09:16:45;97912.41;;;2.91;100.00
10464;BME280;5279;42.048;24.638;2023-01-29T09:19:11;97900.19;;;3.06;100.00
10464;BME280;5279;42.048;24.638;2023-01-29T09:21:40;97904.78;;;3.16;100.00
10464;BME280;5279;42.048;24.638;2023-01-29T09:24:06;97908.81;;;3.36;100.00
10464;BME280;5279;42.048;24.638;2023-01-29T09:26:34;97905.00;;;3.27;100.00
10464;BME280;5279;42.048;24.638;2023-01-29T09:29:01;97895.91;;;3.33;100.00
10464;BME280;5279;42.048;24.638;2023-01-29T09:31:28;97907.13;;;3.35;100.00
10464;BME280;5279;42.048;24.638;2023-01-29T09:33:55;97896.53;;;3.22;100.00
10464;BME280;5279;42.048;24.638;2023-01-29T09:36:21;97900.69;;;3.26;100.00
10464;BME280;5279;42.048;24.638;2023-01-29T09:38:50;97905.72;;;3.15;100.00
10464;BME280;5279;42.048;24.638;2023-01-29T09:41:25;97898.06;;;3.26;100.00
10464;BME280;5279;42.048;24.638;2023-01-29T09:44:00;97901.91;;;3.35;100.00
10464;BME280;5279;42.048;24.638;2023-01-29T09:46:32;97894.88;;;3.21;100.00
10464;BME280;5279;42.048;24.638;2023-01-29T09:49:03;97892.81;;;3.26;100.00
10464;BME280;5279;42.048;24.638;2023-01-29T09:51:37;97888.53;;;3.40;100.00
10464;BME280;5279;42.048;24.638;2023-01-29T09:54:14;97888.53;;;3.40;100.00
10464;BME280;5279;42.048;24.638;2023-01-29T09:56:42;97884.59;;;3.47;100.00
10464;BME280;5279;42.048;24.638;2023-01-29T09:59:12;97894.03;;;3.35;100.00
10464;BME280;5279;42.048;24.638;2023-01-29T10:01:47;97884.31;;;3.37;100.00
10464;BME280;5279;42.048;24.638;2023-01-29T10:04:43;97888.13;;;3.31;100.00
10464;BME280;5279;42.048;24.638;2023-01-29T10:07:37;97885.81;;;3.41;100.00
10464;BME280;5279;42.048;24.638;2023-01-29T10:10:26;97884.41;;;3.36;100.00
10464;BME280;5279;42.048;24.638;2023-01-29T10:13:04;97882.72;;;3.49;100.00
10464;BME280;5279;42.048;24.638;2023-01-29T10:15:41;97880.28;;;3.60;100.00
10464;BME280;5279;42.048;24.638;2023-01-29T10:21:18;97881.59;;;3.67;100.00
10464;BME280;5279;42.048;24.638;2023-01-29T10:23:50;97875.78;;;3.62;100.00
10464;BME280;5279;42.048;24.638;2023-01-29T10:26:23;97866.78;;;3.66;100.00
10464;BME280;5279;42.048;24.638;2023-01-29T10:28:54;97869.91;;;3.58;100.00
10464;BME280;5279;42.048;24.638;2023-01-29T10:31:25;97854.09;;;3.60;100.00
10464;BME280;5279;42.048;24.638;2023-01-29T10:33:59;97851.19;;;3.64;100.00
10464;BME280;5279;42.048;24.638;2023-01-29T10:36:33;97856.25;;;3.67;100.00
10464;BME280;5279;42.048;24.638;2023-01-29T10:39:01;97852.94;;;3.78;100.00
10464;BME280;5279;42.048;24.638;2023-01-29T10:41:47;97844.91;;;3.67;100.00
10464;BME280;5279;42.048;24.638;2023-01-29T10:44:28;97846.56;;;3.68;100.00
10464;BME280;5279;42.048;24.638;2023-01-29T10:47:08;97859.59;;;3.69;100.00
10464;BME280;5279;42.048;24.638;2023-01-29T10:49:56;97847.53;;;3.53;100.00
10464;BME280;5279;42.048;24.638;2023-01-29T10:52:35;97843.34;;;3.64;100.00
10464;BME280;5279;42.048;24.638;2023-01-29T10:55:18;97848.25;;;3.69;100.00
10464;BME280;5279;42.048;24.638;2023-01-29T10:57:59;97835.44;;;3.78;100.00
10464;BME280;5279;42.048;24.638;2023-01-29T11:00:35;97830.28;;;3.77;100.00
10464;BME280;5279;42.048;24.638;2023-01-29T11:03:12;97831.97;;;3.78;100.00
10464;BME280;5279;42.048;24.638;2023-01-29T11:05:44;97830.78;;;3.96;100.00
10464;BME280;5279;42.048;24.638;2023-01-29T11:08:21;97819.03;;;3.89;100.00
10464;BME280;5279;42.048;24.638;2023-01-29T11:10:53;97821.88;;;3.99;100.00
10464;BME280;5279;42.048;24.638;2023-01-29T11:13:30;97829.31;;;3.92;100.00
10464;BME280;5279;42.048;24.638;2023-01-29T11:15:58;97827.25;;;3.97;100.00
10464;BME280;5279;42.048;24.638;2023-01-29T11:18:25;97818.38;;;3.85;100.00
10464;BME280;5279;42.048;24.638;2023-01-29T11:21:00;97824.94;;;4.05;100.00
10464;BME280;5279;42.048;24.638;2023-01-29T11:23:30;97809.09;;;3.94;100.00
10464;BME280;5279;42.048;24.638;2023-01-29T11:25:58;97822.34;;;4.05;100.00
10464;BME280;5279;42.048;24.638;2023-01-29T11:28:37;97808.50;;;4.03;100.00
10464;BME280;5279;42.048;24.638;2023-01-29T11:31:16;97809.03;;;4.08;100.00
10464;BME280;5279;42.048;24.638;2023-01-29T11:33:44;97805.06;;;4.15;100.00
10464;BME280;5279;42.048;24.638;2023-01-29T11:36:28;97801.13;;;4.22;99.83
10464;BME280;5279;42.048;24.638;2023-01-29T11:39:16;97797.53;;;4.23;100.00
10464;BME280;5279;42.048;24.638;2023-01-29T11:41:47;97797.53;;;4.23;100.00
10464;BME280;5279;42.048;24.638;2023-01-29T11:44:20;97784.38;;;4.37;100.00
10464;BME280;5279;42.048;24.638;2023-01-29T11:46:47;97787.72;;;4.39;100.00
10464;BME280;5279;42.048;24.638;2023-01-29T11:49:30;97789.63;;;4.37;98.18
10464;BME280;5279;42.048;24.638;2023-01-29T11:52:00;97793.59;;;4.43;100.00
10464;BME280;5279;42.048;24.638;2023-01-29T11:54:31;97797.53;;;4.23;98.54
10464;BME280;5279;42.048;24.638;2023-01-29T11:57:00;97787.28;;;4.33;97.29
10464;BME280;5279;42.048;24.638;2023-01-29T11:59:37;97778.72;;;4.44;100.00
10464;BME280;5279;42.048;24.638;2023-01-29T12:02:18;97784.16;;;4.40;92.78
10464;BME280;5279;42.048;24.638;2023-01-29T12:04:47;97776.81;;;4.46;97.34
10464;BME280;5279;42.048;24.638;2023-01-29T12:07:15;97775.56;;;4.51;95.47
10464;BME280;5279;42.048;24.638;2023-01-29T12:09:48;97777.44;;;4.36;94.26
10464;BME280;5279;42.048;24.638;2023-01-29T12:12:17;97774.28;;;4.44;97.40
10464;BME280;5279;42.048;24.638;2023-01-29T12:17:51;97780.16;;;4.48;95.29
10464;BME280;5279;42.048;24.638;2023-01-29T12:20:24;97771.44;;;4.47;93.75
10464;BME280;5279;42.048;24.638;2023-01-29T12:23:00;97776.50;;;4.50;94.59
10464;BME280;5279;42.048;24.638;2023-01-29T12:25:40;97768.13;;;4.58;96.29
10464;BME280;5279;42.048;24.638;2023-01-29T12:28:21;97776.84;;;4.58;91.87
10464;BME280;5279;42.048;24.638;2023-01-29T12:31:05;97764.34;;;4.62;94.48
10464;BME280;5279;42.048;24.638;2023-01-29T12:33:39;97757.00;;;4.67;95.01
10464;BME280;5279;42.048;24.638;2023-01-29T12:36:13;97756.88;;;4.68;93.61
10464;BME280;5279;42.048;24.638;2023-01-29T12:38:43;97745.78;;;4.65;95.16
10464;BME280;5279;42.048;24.638;2023-01-29T12:41:33;97751.97;;;4.64;92.34
10464;BME280;5279;42.048;24.638;2023-01-29T12:44:06;97738.00;;;4.63;96.45
10464;BME280;5279;42.048;24.638;2023-01-29T12:46:37;97744.72;;;4.80;94.35
10464;BME280;5279;42.048;24.638;2023-01-29T12:49:11;97748.72;;;4.98;92.57
10464;BME280;5279;42.048;24.638;2023-01-29T12:51:44;97739.13;;;4.97;90.01
10464;BME280;5279;42.048;24.638;2023-01-29T12:54:18;97758.78;;;5.04;90.05
10464;BME280;5279;42.048;24.638;2023-01-29T12:56:49;97752.25;;;5.10;90.63
10464;BME280;5279;42.048;24.638;2023-01-29T12:59:20;97748.50;;;5.01;93.76
10464;BME280;5279;42.048;24.638;2023-01-29T13:01:53;97750.38;;;4.99;88.28
10464;BME280;5279;42.048;24.638;2023-01-29T13:04:29;97743.44;;;4.98;89.46
10464;BME280;5279;42.048;24.638;2023-01-29T13:07:08;97749.72;;;4.95;89.33
10464;BME280;5279;42.048;24.638;2023-01-29T13:09:40;97749.56;;;4.86;88.18
10464;BME280;5279;42.048;24.638;2023-01-29T13:12:12;97737.78;;;4.79;91.00
10464;BME280;5279;42.048;24.638;2023-01-29T13:14:44;97751.84;;;4.65;91.84
10464;BME280;5279;42.048;24.638;2023-01-29T13:17:18;97755.81;;;4.46;89.66
10464;BME280;5279;42.048;24.638;2023-01-29T13:19:49;97754.88;;;4.72;89.96
10464;BME280;5279;42.048;24.638;2023-01-29T13:22:21;97754.38;;;4.79;92.58
10464;BME280;5279;42.048;24.638;2023-01-29T13:24:49;97754.59;;;4.89;91.28
10464;BME280;5279;42.048;24.638;2023-01-29T13:27:21;97750.16;;;5.02;91.17
10464;BME280;5279;42.048;24.638;2023-01-29T13:29:50;97758.25;;;4.99;86.87
10464;BME280;5279;42.048;24.638;2023-01-29T13:32:23;97755.81;;;4.96;87.02